createdAt,value
2019-01-14T00:00:41.128Z,934.56
2019-01-14T00:01:41.119Z,934.46
2019-01-14T00:02:41.110Z,934.58
2019-01-14T00:03:41.102Z,934.45
2019-01-14T00:04:41.091Z,934.49
2019-01-14T00:05:41.079Z,934.50
2019-01-14T00:06:41.073Z,934.48
2019-01-14T00:07:41.066Z,934.42
2019-01-14T00:08:41.055Z,934.37
2019-01-14T00:09:41.044Z,934.35
2019-01-14T00:10:41.036Z,934.37
2019-01-14T00:11:41.027Z,934.35
2019-01-14T00:12:41.017Z,934.38
2019-01-14T00:13:41.008Z,934.31
2019-01-14T00:14:40.998Z,934.29
2019-01-14T00:15:40.990Z,934.34
2019-01-14T00:16:40.979Z,934.35
2019-01-14T00:17:40.971Z,934.34
2019-01-14T00:18:40.959Z,934.28
2019-01-14T00:19:40.953Z,934.29
2019-01-14T00:20:40.945Z,934.28
2019-01-14T00:21:40.933Z,934.28
2019-01-14T00:22:40.927Z,934.33
2019-01-14T00:23:40.916Z,934.31
2019-01-14T00:24:40.908Z,934.35
2019-01-14T00:25:40.896Z,934.26
2019-01-14T00:26:40.890Z,934.27
2019-01-14T00:27:40.879Z,934.29
2019-01-14T00:28:40.874Z,934.26
2019-01-14T00:29:40.863Z,934.40
2019-01-14T00:30:40.855Z,934.41
2019-01-14T00:31:40.846Z,934.47
2019-01-14T00:32:40.835Z,934.38
2019-01-14T00:33:40.825Z,934.38
2019-01-14T00:34:40.817Z,934.34
2019-01-14T00:35:40.806Z,934.27
2019-01-14T00:36:40.796Z,934.27
2019-01-14T00:37:40.789Z,934.38
2019-01-14T00:38:40.780Z,934.29
2019-01-14T00:39:40.776Z,934.39
2019-01-14T00:40:40.762Z,934.36
2019-01-14T00:41:40.753Z,934.45
2019-01-14T00:42:40.746Z,934.53
2019-01-14T00:43:40.735Z,934.63
2019-01-14T00:44:40.725Z,934.61
2019-01-14T00:45:40.719Z,934.61
2019-01-14T00:46:40.708Z,934.57
2019-01-14T00:47:40.699Z,934.56
2019-01-14T00:48:40.690Z,934.58
2019-01-14T00:49:40.679Z,934.62
2019-01-14T00:50:40.669Z,934.60
2019-01-14T00:51:40.663Z,934.62
2019-01-14T00:52:40.653Z,934.57
2019-01-14T00:53:40.643Z,934.52
2019-01-14T00:54:40.636Z,934.52
2019-01-14T00:55:40.625Z,934.59
2019-01-14T00:56:40.616Z,934.54
2019-01-14T00:57:40.617Z,934.51
2019-01-14T00:58:40.598Z,934.52
2019-01-14T00:59:40.588Z,934.45
2019-01-14T01:00:40.579Z,934.47
2019-01-14T01:01:40.569Z,934.45
2019-01-14T01:02:40.562Z,934.51
2019-01-14T01:03:40.552Z,934.50
2019-01-14T01:04:40.543Z,934.62
2019-01-14T01:05:40.533Z,934.67
2019-01-14T01:06:40.523Z,934.49
2019-01-14T01:07:40.515Z,934.38
2019-01-14T01:08:40.505Z,934.29
2019-01-14T01:09:40.497Z,934.41
2019-01-14T01:10:40.487Z,934.46
2019-01-14T01:11:40.481Z,934.50
2019-01-14T01:12:41.326Z,934.49
2019-01-14T01:13:40.459Z,934.55
2019-01-14T01:14:40.450Z,934.55
2019-01-14T01:15:40.442Z,934.64
2019-01-14T01:16:40.432Z,934.72
2019-01-14T01:17:40.422Z,934.82
2019-01-14T01:18:40.410Z,934.93
2019-01-14T01:19:40.405Z,934.94
2019-01-14T01:20:40.394Z,934.90
2019-01-14T01:21:40.385Z,934.85
2019-01-14T01:22:40.376Z,934.84
2019-01-14T01:23:40.369Z,934.79
2019-01-14T01:24:40.359Z,934.94
2019-01-14T01:25:40.350Z,934.88
2019-01-14T01:26:40.340Z,934.94
2019-01-14T01:27:40.394Z,934.95
2019-01-14T01:28:40.321Z,934.87
2019-01-14T01:29:40.311Z,935.00
2019-01-14T01:30:40.299Z,934.92
2019-01-14T01:31:40.290Z,934.89
2019-01-14T01:32:40.283Z,934.99
2019-01-14T01:33:40.272Z,935.08
2019-01-14T01:34:40.268Z,935.03
2019-01-14T01:35:40.252Z,935.02
2019-01-14T01:36:40.246Z,935.07
2019-01-14T01:37:40.236Z,935.04
2019-01-14T01:38:40.226Z,935.04
2019-01-14T01:39:40.219Z,935.09
2019-01-14T01:40:40.209Z,935.17
2019-01-14T01:41:40.197Z,935.11
2019-01-14T01:42:40.188Z,935.23
2019-01-14T01:43:40.179Z,935.22
2019-01-14T01:44:40.170Z,935.29
2019-01-14T01:45:40.159Z,935.31
2019-01-14T01:46:40.153Z,935.31
2019-01-14T01:47:40.139Z,935.42
2019-01-14T01:48:40.132Z,935.40
2019-01-14T01:49:40.125Z,935.39
2019-01-14T01:50:40.111Z,935.45
2019-01-14T01:51:40.103Z,935.41
2019-01-14T01:52:40.095Z,935.43
2019-01-14T01:53:40.085Z,935.45
2019-01-14T01:54:40.074Z,935.45
2019-01-14T01:55:40.067Z,935.48
2019-01-14T01:56:40.055Z,935.35
2019-01-14T01:57:40.045Z,935.34
2019-01-14T01:58:40.036Z,935.35
2019-01-14T01:59:40.028Z,935.30
2019-01-14T02:00:40.016Z,935.35
2019-01-14T02:01:39.999Z,935.28
2019-01-14T02:02:39.999Z,935.29
2019-01-14T02:03:39.986Z,935.30
2019-01-14T02:04:39.980Z,935.33
2019-01-14T02:05:39.967Z,935.35
2019-01-14T02:06:39.959Z,935.34
2019-01-14T02:07:39.950Z,935.35
2019-01-14T02:08:39.939Z,935.38
2019-01-14T02:09:39.927Z,935.38
2019-01-14T02:10:39.922Z,935.38
2019-01-14T02:11:39.909Z,935.40
2019-01-14T02:12:39.901Z,935.40
2019-01-14T02:13:39.890Z,935.41
2019-01-14T02:14:39.879Z,935.44
2019-01-14T02:15:39.870Z,935.44
2019-01-14T02:16:39.863Z,935.44
2019-01-14T02:17:39.891Z,935.48
2019-01-14T02:18:39.842Z,935.53
2019-01-14T02:19:39.831Z,935.56
2019-01-14T02:20:39.821Z,935.57
2019-01-14T02:21:39.812Z,935.60
2019-01-14T02:22:39.804Z,935.66
2019-01-14T02:23:39.791Z,935.68
2019-01-14T02:24:39.783Z,935.66
2019-01-14T02:25:39.772Z,935.71
2019-01-14T02:26:39.764Z,935.69
2019-01-14T02:27:39.751Z,935.72
2019-01-14T02:28:39.742Z,935.73
2019-01-14T02:29:39.732Z,935.78
2019-01-14T02:30:39.723Z,935.77
2019-01-14T02:31:39.713Z,935.76
2019-01-14T02:32:39.703Z,935.78
2019-01-14T02:33:39.692Z,935.75
2019-01-14T02:34:39.713Z,935.73
2019-01-14T02:35:39.672Z,935.69
2019-01-14T02:36:48.180Z,935.65
2019-01-14T02:37:39.652Z,935.67
2019-01-14T02:38:39.643Z,935.69
2019-01-14T02:39:39.634Z,935.76
2019-01-14T02:40:39.622Z,935.78
2019-01-14T02:41:39.613Z,935.86
2019-01-14T02:42:39.604Z,935.90
2019-01-14T02:43:39.591Z,935.96
2019-01-14T02:44:39.582Z,936.03
2019-01-14T02:45:39.571Z,936.02
2019-01-14T02:46:39.564Z,936.01
2019-01-14T02:47:39.548Z,935.92
2019-01-14T02:48:39.543Z,935.83
2019-01-14T02:49:39.532Z,935.72
2019-01-14T02:50:39.521Z,935.62
2019-01-14T02:51:39.514Z,935.66
2019-01-14T02:52:39.974Z,935.60
2019-01-14T02:53:39.491Z,935.60
2019-01-14T02:54:39.486Z,935.63
2019-01-14T02:55:39.472Z,935.68
2019-01-14T02:56:39.462Z,935.64
2019-01-14T02:57:39.452Z,935.67
2019-01-14T02:58:39.440Z,935.70
2019-01-14T02:59:39.429Z,935.64
2019-01-14T03:00:39.423Z,935.74
2019-01-14T03:01:39.411Z,935.78
2019-01-14T03:02:39.400Z,935.83
2019-01-14T03:03:39.390Z,935.82
2019-01-14T03:04:39.380Z,935.84
2019-01-14T03:05:39.371Z,935.70
2019-01-14T03:06:39.359Z,935.67
2019-01-14T03:07:40.481Z,935.64
2019-01-14T03:08:41.205Z,935.69
2019-01-14T03:09:39.329Z,935.73
2019-01-14T03:10:39.319Z,935.68
2019-01-14T03:11:39.309Z,935.67
2019-01-14T03:12:39.298Z,935.66
2019-01-14T03:13:39.288Z,935.62
2019-01-14T03:14:39.279Z,935.65
2019-01-14T03:15:39.266Z,935.66
2019-01-14T03:16:39.257Z,935.72
2019-01-14T03:17:39.245Z,935.62
2019-01-14T03:18:39.253Z,935.65
2019-01-14T03:19:39.226Z,935.70
2019-01-14T03:20:39.216Z,935.75
2019-01-14T03:21:39.206Z,935.75
2019-01-14T03:22:39.196Z,935.80
2019-01-14T03:23:39.185Z,935.82
2019-01-14T03:24:39.176Z,935.85
2019-01-14T03:25:39.164Z,935.88
2019-01-14T03:26:39.157Z,935.92
2019-01-14T03:27:39.150Z,935.95
2019-01-14T03:28:39.132Z,935.90
2019-01-14T03:29:39.119Z,935.94
2019-01-14T03:30:39.110Z,935.91
2019-01-14T03:31:39.101Z,935.95
2019-01-14T03:32:39.103Z,935.95
2019-01-14T03:33:39.077Z,935.91
2019-01-14T03:34:39.068Z,935.93
2019-01-14T03:35:39.056Z,935.94
2019-01-14T03:36:39.047Z,935.99
2019-01-14T03:37:39.035Z,936.04
2019-01-14T03:38:39.024Z,936.05
2019-01-14T03:39:39.013Z,936.16
2019-01-14T03:40:39.008Z,936.15
2019-01-14T03:41:38.996Z,936.11
2019-01-14T03:42:38.982Z,936.16
2019-01-14T03:43:38.971Z,936.18
2019-01-14T03:44:38.961Z,936.17
2019-01-14T03:45:38.950Z,936.23
2019-01-14T03:46:38.941Z,936.19
2019-01-14T03:47:38.929Z,936.15
2019-01-14T03:48:38.922Z,936.15
2019-01-14T03:49:38.907Z,936.16
2019-01-14T03:50:38.895Z,936.16
2019-01-14T03:51:38.887Z,936.17
2019-01-14T03:52:38.875Z,936.21
2019-01-14T03:53:38.862Z,936.27
2019-01-14T03:54:38.852Z,936.31
2019-01-14T03:55:38.845Z,936.36
2019-01-14T03:56:38.832Z,936.35
2019-01-14T03:57:38.819Z,936.37
2019-01-14T03:58:41.076Z,936.42
2019-01-14T03:59:38.798Z,936.41
2019-01-14T04:00:38.790Z,936.44
2019-01-14T04:01:38.778Z,936.47
2019-01-14T04:02:38.769Z,936.48
2019-01-14T04:03:38.755Z,936.47
2019-01-14T04:04:38.744Z,936.48
2019-01-14T04:05:38.735Z,936.55
2019-01-14T04:06:38.724Z,936.61
2019-01-14T04:07:38.712Z,936.66
2019-01-14T04:08:38.700Z,936.73
2019-01-14T04:09:38.691Z,936.74
2019-01-14T04:10:38.678Z,936.75
2019-01-14T04:11:38.668Z,936.78
2019-01-14T04:12:38.657Z,936.82
2019-01-14T04:13:38.646Z,936.83
2019-01-14T04:14:38.637Z,936.87
2019-01-14T04:15:38.624Z,936.89
2019-01-14T04:16:38.613Z,936.91
2019-01-14T04:17:38.604Z,936.95
2019-01-14T04:18:38.595Z,936.96
2019-01-14T04:19:38.599Z,937.01
2019-01-14T04:20:38.570Z,936.96
2019-01-14T04:21:38.558Z,937.02
2019-01-14T04:22:38.550Z,937.03
2019-01-14T04:23:38.543Z,937.09
2019-01-14T04:24:38.536Z,937.09
2019-01-14T04:25:38.517Z,937.05
2019-01-14T04:26:38.505Z,937.03
2019-01-14T04:27:38.496Z,937.03
2019-01-14T04:28:38.485Z,937.12
2019-01-14T04:29:38.470Z,937.07
2019-01-14T04:30:38.462Z,937.10
2019-01-14T04:31:38.438Z,937.16
2019-01-14T04:32:38.434Z,937.13
2019-01-14T04:33:38.428Z,937.19
2019-01-14T04:34:38.416Z,937.20
2019-01-14T04:35:38.407Z,937.19
2019-01-14T04:36:38.395Z,937.26
2019-01-14T04:37:38.384Z,937.25
2019-01-14T04:38:38.376Z,937.20
2019-01-14T04:39:38.362Z,937.32
2019-01-14T04:40:38.354Z,937.38
2019-01-14T04:41:38.341Z,937.43
2019-01-14T04:42:38.330Z,937.50
2019-01-14T04:43:38.321Z,937.53
2019-01-14T04:44:38.306Z,937.51
2019-01-14T04:45:38.297Z,937.55
2019-01-14T04:46:38.288Z,937.60
2019-01-14T04:47:38.276Z,937.59
2019-01-14T04:48:40.517Z,937.56
2019-01-14T04:49:38.261Z,937.62
2019-01-14T04:50:38.250Z,937.66
2019-01-14T04:51:38.237Z,937.68
2019-01-14T04:52:38.225Z,937.68
2019-01-14T04:53:38.212Z,937.69
2019-01-14T04:54:38.209Z,937.69
2019-01-14T04:55:38.189Z,937.69
2019-01-14T04:56:38.182Z,937.65
2019-01-14T04:57:38.169Z,937.65
2019-01-14T04:58:38.159Z,937.65
2019-01-14T04:59:38.148Z,937.65
2019-01-14T05:00:38.165Z,937.65
2019-01-14T05:01:38.123Z,937.61
2019-01-14T05:02:38.122Z,937.65
2019-01-14T05:03:38.106Z,937.66
2019-01-14T05:04:38.095Z,937.67
2019-01-14T05:05:38.083Z,937.70
2019-01-14T05:06:38.073Z,937.72
2019-01-14T05:07:38.062Z,937.71
2019-01-14T05:08:38.052Z,937.75
2019-01-14T05:09:38.042Z,937.84
2019-01-14T05:10:38.031Z,937.80
2019-01-14T05:11:38.027Z,937.85
2019-01-14T05:12:38.011Z,937.84
2019-01-14T05:13:38.000Z,937.88
2019-01-14T05:14:37.988Z,937.84
2019-01-14T05:15:38.005Z,937.81
2019-01-14T05:16:37.970Z,937.92
2019-01-14T05:17:37.957Z,937.88
2019-01-14T05:18:37.956Z,937.97
2019-01-14T05:19:37.943Z,937.98
2019-01-14T05:20:37.926Z,938.03
2019-01-14T05:21:37.930Z,938.02
2019-01-14T05:22:37.928Z,938.05
2019-01-14T05:23:37.937Z,938.16
2019-01-14T05:24:37.884Z,938.17
2019-01-14T05:25:37.875Z,938.18
2019-01-14T05:26:37.866Z,938.19
2019-01-14T05:27:37.855Z,938.19
2019-01-14T05:28:37.843Z,938.28
2019-01-14T05:29:37.839Z,938.27
2019-01-14T05:30:37.828Z,938.26
2019-01-14T05:31:37.815Z,938.29
2019-01-14T05:32:37.799Z,938.31
2019-01-14T05:33:37.792Z,938.29
2019-01-14T05:34:37.785Z,938.30
2019-01-14T05:35:37.770Z,938.27
2019-01-14T05:36:37.760Z,938.30
2019-01-14T05:37:38.203Z,938.29
2019-01-14T05:38:37.737Z,938.32
2019-01-14T05:39:37.729Z,938.34
2019-01-14T05:40:37.719Z,938.35
2019-01-14T05:41:37.708Z,938.36
2019-01-14T05:42:37.729Z,938.31
2019-01-14T05:43:37.689Z,938.25
2019-01-14T05:44:37.712Z,938.28
2019-01-14T05:45:37.668Z,938.30
2019-01-14T05:46:37.659Z,938.29
2019-01-14T05:47:37.649Z,938.22
2019-01-14T05:48:37.648Z,938.27
2019-01-14T05:49:37.631Z,938.28
2019-01-14T05:50:37.618Z,938.33
2019-01-14T05:51:37.611Z,938.37
2019-01-14T05:52:37.602Z,938.38
2019-01-14T05:53:37.587Z,938.34
2019-01-14T05:54:37.577Z,938.36
2019-01-14T05:55:37.568Z,938.44
2019-01-14T05:56:37.556Z,938.38
2019-01-14T05:57:37.545Z,938.41
2019-01-14T05:58:37.542Z,938.44
2019-01-14T05:59:37.525Z,938.47
2019-01-14T06:00:37.519Z,938.43
2019-01-14T06:01:37.507Z,938.50
2019-01-14T06:02:37.511Z,938.53
2019-01-14T06:03:37.479Z,938.53
2019-01-14T06:04:37.477Z,938.52
2019-01-14T06:05:37.471Z,938.50
2019-01-14T06:06:37.455Z,938.46
2019-01-14T06:07:44.682Z,938.46
2019-01-14T06:08:37.436Z,938.52
2019-01-14T06:09:37.426Z,938.55
2019-01-14T06:10:37.416Z,938.56
2019-01-14T06:11:37.413Z,938.55
2019-01-14T06:12:37.411Z,938.53
2019-01-14T06:13:37.386Z,938.53
2019-01-14T06:14:37.378Z,938.54
2019-01-14T06:15:37.365Z,938.63
2019-01-14T06:16:37.355Z,938.61
2019-01-14T06:17:37.360Z,938.61
2019-01-14T06:18:37.339Z,938.65
2019-01-14T06:19:37.330Z,938.58
2019-01-14T06:20:37.317Z,938.64
2019-01-14T06:21:37.304Z,938.59
2019-01-14T06:22:37.300Z,938.63
2019-01-14T06:23:37.285Z,938.66
2019-01-14T06:24:37.275Z,938.63
2019-01-14T06:25:37.268Z,938.68
2019-01-14T06:26:37.257Z,938.65
2019-01-14T06:27:37.244Z,938.64
2019-01-14T06:28:37.236Z,938.73
2019-01-14T06:29:37.272Z,938.73
2019-01-14T06:30:37.215Z,938.78
2019-01-14T06:31:37.206Z,938.78
2019-01-14T06:32:37.194Z,938.76
2019-01-14T06:33:37.183Z,938.81
2019-01-14T06:34:37.175Z,938.82
2019-01-14T06:35:37.163Z,938.87
2019-01-14T06:36:37.153Z,938.85
2019-01-14T06:37:37.144Z,938.84
2019-01-14T06:38:37.133Z,938.86
2019-01-14T06:39:37.123Z,938.86
2019-01-14T06:40:37.111Z,938.86
2019-01-14T06:41:37.267Z,938.89
2019-01-14T06:42:37.090Z,938.87
2019-01-14T06:43:37.082Z,938.90
2019-01-14T06:44:37.069Z,938.90
2019-01-14T06:45:37.061Z,938.94
2019-01-14T06:46:37.050Z,938.93
2019-01-14T06:47:37.038Z,938.92
2019-01-14T06:48:37.035Z,938.92
2019-01-14T06:49:37.016Z,938.92
2019-01-14T06:50:37.008Z,938.95
2019-01-14T06:51:37.000Z,938.94
2019-01-14T06:52:36.987Z,938.88
2019-01-14T06:53:36.975Z,938.93
2019-01-14T06:54:36.965Z,938.96
2019-01-14T06:55:36.971Z,938.95
2019-01-14T06:56:36.945Z,938.97
2019-01-14T06:57:36.942Z,939.01
2019-01-14T06:58:36.925Z,938.99
2019-01-14T06:59:36.914Z,939.00
2019-01-14T07:00:36.904Z,939.04
2019-01-14T07:01:36.884Z,939.09
2019-01-14T07:02:36.893Z,939.07
2019-01-14T07:03:36.869Z,939.07
2019-01-14T07:04:36.869Z,939.07
2019-01-14T07:05:36.855Z,939.10
2019-01-14T07:06:36.844Z,939.13
2019-01-14T07:07:36.840Z,939.13
2019-01-14T07:08:36.822Z,939.14
2019-01-14T07:09:36.811Z,939.20
2019-01-14T07:10:36.802Z,939.26
2019-01-14T07:11:36.791Z,939.29
2019-01-14T07:12:36.781Z,939.32
2019-01-14T07:13:36.774Z,939.39
2019-01-14T07:14:36.761Z,939.37
2019-01-14T07:15:36.753Z,939.40
2019-01-14T07:16:36.740Z,939.43
2019-01-14T07:17:36.733Z,939.42
2019-01-14T07:18:36.721Z,939.49
2019-01-14T07:19:36.710Z,939.46
2019-01-14T07:20:36.752Z,939.51
2019-01-14T07:21:36.690Z,939.51
2019-01-14T07:22:36.684Z,939.47
2019-01-14T07:23:36.670Z,939.49
2019-01-14T07:24:36.667Z,939.57
2019-01-14T07:25:36.656Z,939.57
2019-01-14T07:26:36.633Z,939.53
2019-01-14T07:27:36.633Z,939.50
2019-01-14T07:28:36.619Z,939.54
2019-01-14T07:29:36.611Z,939.50
2019-01-14T07:30:36.599Z,939.54
2019-01-14T07:31:36.588Z,939.56
2019-01-14T07:32:36.579Z,939.55
2019-01-14T07:33:36.569Z,939.62
2019-01-14T07:34:36.560Z,939.65
2019-01-14T07:35:36.573Z,939.66
2019-01-14T07:36:36.543Z,939.67
2019-01-14T07:37:36.527Z,939.72
2019-01-14T07:38:36.520Z,939.72
2019-01-14T07:39:36.509Z,939.76
2019-01-14T07:40:36.501Z,939.74
2019-01-14T07:41:36.494Z,939.79
2019-01-14T07:42:36.479Z,939.80
2019-01-14T07:43:36.471Z,939.83
2019-01-14T07:44:36.459Z,939.89
2019-01-14T07:45:36.447Z,939.88
2019-01-14T07:46:36.438Z,939.96
2019-01-14T07:47:36.428Z,939.93
2019-01-14T07:48:36.420Z,939.95
2019-01-14T07:49:36.408Z,939.96
2019-01-14T07:50:36.398Z,939.95
2019-01-14T07:51:36.393Z,939.98
2019-01-14T07:52:36.379Z,939.98
2019-01-14T07:53:36.368Z,940.02
2019-01-14T07:54:36.359Z,940.03
2019-01-14T07:55:36.349Z,940.08
2019-01-14T07:56:36.339Z,940.11
2019-01-14T07:57:36.332Z,940.08
2019-01-14T07:58:36.322Z,940.06
2019-01-14T07:59:36.310Z,940.08
2019-01-14T08:00:36.300Z,940.05
2019-01-14T08:01:36.290Z,940.03
2019-01-14T08:02:36.281Z,940.08
2019-01-14T08:03:36.272Z,940.13
2019-01-14T08:04:36.262Z,940.16
2019-01-14T08:05:36.251Z,940.22
2019-01-14T08:06:36.242Z,940.30
2019-01-14T08:07:36.221Z,940.24
2019-01-14T08:08:36.224Z,940.31
2019-01-14T08:09:36.213Z,940.30
2019-01-14T08:10:36.302Z,940.27
2019-01-14T08:11:36.240Z,940.35
2019-01-14T08:12:36.184Z,940.30
2019-01-14T08:13:36.175Z,940.31
2019-01-14T08:14:36.175Z,940.34
2019-01-14T08:15:36.157Z,940.39
2019-01-14T08:16:36.148Z,940.38
2019-01-14T08:17:36.138Z,940.34
2019-01-14T08:18:36.126Z,940.33
2019-01-14T08:19:36.118Z,940.35
2019-01-14T08:20:36.110Z,940.32
2019-01-14T08:21:36.092Z,940.35
2019-01-14T08:22:36.107Z,940.36
2019-01-14T08:23:36.080Z,940.37
2019-01-14T08:24:36.072Z,940.38
2019-01-14T08:25:37.465Z,940.36
2019-01-14T08:26:36.043Z,940.40
2019-01-14T08:27:36.043Z,940.35
2019-01-14T08:28:36.036Z,940.35
2019-01-14T08:29:36.026Z,940.35
2019-01-14T08:30:36.015Z,940.39
2019-01-14T08:31:36.008Z,940.39
2019-01-14T08:32:36.000Z,940.35
2019-01-14T08:33:35.992Z,940.36
2019-01-14T08:34:35.977Z,940.35
2019-01-14T08:35:35.969Z,940.39
2019-01-14T08:36:35.961Z,940.41
2019-01-14T08:37:35.952Z,940.40
2019-01-14T08:38:35.941Z,940.46
2019-01-14T08:39:35.931Z,940.49
2019-01-14T08:40:35.922Z,940.52
2019-01-14T08:41:35.914Z,940.52
2019-01-14T08:42:37.377Z,940.55
2019-01-14T08:43:35.899Z,940.62
2019-01-14T08:44:35.886Z,940.66
2019-01-14T08:45:35.878Z,940.72
2019-01-14T08:46:35.867Z,940.75
2019-01-14T08:47:35.859Z,940.78
2019-01-14T08:48:35.853Z,940.80
2019-01-14T08:49:35.839Z,940.83
2019-01-14T08:50:35.853Z,940.82
2019-01-14T08:51:35.822Z,940.85
2019-01-14T08:52:35.813Z,940.92
2019-01-14T08:53:35.803Z,940.93
2019-01-14T08:54:35.794Z,940.93
2019-01-14T08:55:35.786Z,940.98
2019-01-14T08:56:35.775Z,941.02
2019-01-14T08:57:35.767Z,941.04
2019-01-14T08:58:35.756Z,941.03
2019-01-14T08:59:35.748Z,941.12
2019-01-14T09:00:35.739Z,941.12
2019-01-14T09:01:38.139Z,941.11
2019-01-14T09:02:35.720Z,941.12
2019-01-14T09:03:35.708Z,941.09
2019-01-14T09:04:35.703Z,941.01
2019-01-14T09:05:35.693Z,941.07
2019-01-14T09:06:35.687Z,941.09
2019-01-14T09:07:35.676Z,941.08
2019-01-14T09:08:35.668Z,941.03
2019-01-14T09:09:35.662Z,941.01
2019-01-14T09:10:35.649Z,941.01
2019-01-14T09:11:35.645Z,940.98
2019-01-14T09:12:35.635Z,940.94
2019-01-14T09:13:35.626Z,941.02
2019-01-14T09:14:35.616Z,941.03
2019-01-14T09:15:35.607Z,941.05
2019-01-14T09:16:35.601Z,940.96
2019-01-14T09:17:35.590Z,941.01
2019-01-14T09:18:35.610Z,940.97
2019-01-14T09:19:35.577Z,941.02
2019-01-14T09:20:35.569Z,941.04
2019-01-14T09:21:35.561Z,941.08
2019-01-14T09:22:35.557Z,941.08
2019-01-14T09:23:35.541Z,941.12
2019-01-14T09:24:35.540Z,941.11
2019-01-14T09:25:35.531Z,941.08
2019-01-14T09:26:35.520Z,941.05
2019-01-14T09:27:35.519Z,941.08
2019-01-14T09:28:35.513Z,941.07
2019-01-14T09:29:35.506Z,941.05
2019-01-14T09:30:35.501Z,941.09
2019-01-14T09:31:35.489Z,941.06
2019-01-14T09:32:35.485Z,941.03
2019-01-14T09:33:35.481Z,941.01
2019-01-14T09:34:35.472Z,941.00
2019-01-14T09:35:35.466Z,941.01
2019-01-14T09:36:35.457Z,941.04
2019-01-14T09:37:35.451Z,940.98
2019-01-14T09:38:36.025Z,941.06
2019-01-14T09:39:35.443Z,941.03
2019-01-14T09:40:35.431Z,941.07
2019-01-14T09:41:35.425Z,941.07
2019-01-14T09:42:35.418Z,941.09
2019-01-14T09:43:35.410Z,941.12
2019-01-14T09:44:35.412Z,941.21
2019-01-14T09:45:35.398Z,941.22
2019-01-14T09:46:35.390Z,941.22
2019-01-14T09:47:35.381Z,941.26
2019-01-14T09:48:35.377Z,941.27
2019-01-14T09:49:35.387Z,941.32
2019-01-14T09:50:35.363Z,941.27
2019-01-14T09:51:35.394Z,941.35
2019-01-14T09:52:35.373Z,941.37
2019-01-14T09:53:35.341Z,941.44
2019-01-14T09:54:35.335Z,941.44
2019-01-14T09:55:35.326Z,941.46
2019-01-14T09:56:35.323Z,941.48
2019-01-14T09:57:35.319Z,941.49
2019-01-14T09:58:35.306Z,941.48
2019-01-14T09:59:35.301Z,941.47
2019-01-14T10:00:35.296Z,941.45
2019-01-14T10:01:35.287Z,941.50
2019-01-14T10:02:35.278Z,941.50
2019-01-14T10:03:35.272Z,941.49
2019-01-14T10:04:35.268Z,941.49
2019-01-14T10:05:35.261Z,941.49
2019-01-14T10:06:35.268Z,941.47
2019-01-14T10:07:35.284Z,941.52
2019-01-14T10:08:35.239Z,941.49
2019-01-14T10:09:35.229Z,941.51
2019-01-14T10:10:35.224Z,941.51
2019-01-14T10:11:35.219Z,941.50
2019-01-14T10:12:35.210Z,941.44
2019-01-14T10:13:35.204Z,941.46
2019-01-14T10:14:35.195Z,941.44
2019-01-14T10:15:35.186Z,941.43
2019-01-14T10:16:35.182Z,941.49
2019-01-14T10:17:35.175Z,941.45
2019-01-14T10:18:35.166Z,941.45
2019-01-14T10:19:35.161Z,941.44
2019-01-14T10:20:35.156Z,941.38
2019-01-14T10:21:35.149Z,941.36
2019-01-14T10:22:35.142Z,941.31
2019-01-14T10:23:35.135Z,941.23
2019-01-14T10:24:35.129Z,941.20
2019-01-14T10:25:35.121Z,941.19
2019-01-14T10:26:35.124Z,941.18
2019-01-14T10:27:35.113Z,941.21
2019-01-14T10:28:35.101Z,941.19
2019-01-14T10:29:35.097Z,941.20
2019-01-14T10:30:35.124Z,941.23
2019-01-14T10:31:35.086Z,941.20
2019-01-14T10:32:35.075Z,941.16
2019-01-14T10:33:35.173Z,941.16
2019-01-14T10:34:35.063Z,941.24
2019-01-14T10:35:35.057Z,941.24
2019-01-14T10:36:35.050Z,941.28
2019-01-14T10:37:35.044Z,941.29
2019-01-14T10:38:35.036Z,941.20
2019-01-14T10:39:35.031Z,941.15
2019-01-14T10:40:35.026Z,941.17
2019-01-14T10:41:35.018Z,941.18
2019-01-14T10:42:35.133Z,941.19
2019-01-14T10:43:37.076Z,941.19
2019-01-14T10:44:35.002Z,941.21
2019-01-14T10:45:35.001Z,941.24
2019-01-14T10:46:34.991Z,941.24
2019-01-14T10:47:34.987Z,941.25
2019-01-14T10:48:34.977Z,941.31
2019-01-14T10:49:34.967Z,941.27
2019-01-14T10:50:34.964Z,941.32
2019-01-14T10:51:34.960Z,941.31
2019-01-14T10:52:34.955Z,941.33
2019-01-14T10:53:34.949Z,941.33
2019-01-14T10:54:34.944Z,941.33
2019-01-14T10:55:34.940Z,941.24
2019-01-14T10:56:34.933Z,941.26
2019-01-14T10:57:34.927Z,941.21
2019-01-14T10:58:34.922Z,941.22
2019-01-14T10:59:34.929Z,941.27
2019-01-14T11:00:34.914Z,941.28
2019-01-14T11:01:34.907Z,941.29
2019-01-14T11:02:34.905Z,941.27
2019-01-14T11:03:34.899Z,941.23
2019-01-14T11:04:34.892Z,941.29
2019-01-14T11:05:34.886Z,941.26
2019-01-14T11:06:34.880Z,941.21
2019-01-14T11:07:34.875Z,941.19
2019-01-14T11:08:34.875Z,941.20
2019-01-14T11:09:34.867Z,941.21
2019-01-14T11:10:34.861Z,941.19
2019-01-14T11:11:34.865Z,941.19
2019-01-14T11:12:34.850Z,941.19
2019-01-14T11:13:34.848Z,941.19
2019-01-14T11:14:34.842Z,941.16
2019-01-14T11:15:34.838Z,941.20
2019-01-14T11:16:34.832Z,941.19
2019-01-14T11:17:34.841Z,941.18
2019-01-14T11:18:34.822Z,941.20
2019-01-14T11:19:34.820Z,941.16
2019-01-14T11:20:34.813Z,941.18
2019-01-14T11:21:34.816Z,941.17
2019-01-14T11:22:34.805Z,941.11
2019-01-14T11:23:34.798Z,941.06
2019-01-14T11:24:34.794Z,941.10
2019-01-14T11:25:34.787Z,941.08
2019-01-14T11:26:34.784Z,941.04
2019-01-14T11:27:34.776Z,941.07
2019-01-14T11:28:34.773Z,941.06
2019-01-14T11:29:34.770Z,941.08
2019-01-14T11:30:34.766Z,941.07
2019-01-14T11:31:34.746Z,941.12
2019-01-14T11:32:34.744Z,941.13
2019-01-14T11:33:34.743Z,941.10
2019-01-14T11:34:34.736Z,941.06
2019-01-14T11:35:34.731Z,940.99
2019-01-14T11:36:34.725Z,941.01
2019-01-14T11:37:34.720Z,940.97
2019-01-14T11:38:34.716Z,940.96
2019-01-14T11:39:34.709Z,940.97
2019-01-14T11:40:34.704Z,940.95
2019-01-14T11:41:34.698Z,940.99
2019-01-14T11:42:34.695Z,940.99
2019-01-14T11:43:34.722Z,940.97
2019-01-14T11:44:34.684Z,940.88
2019-01-14T11:45:34.675Z,940.93
2019-01-14T11:46:34.671Z,940.92
2019-01-14T11:47:34.664Z,940.97
2019-01-14T11:48:34.654Z,940.95
2019-01-14T11:49:34.656Z,940.89
2019-01-14T11:50:34.655Z,940.89
2019-01-14T11:51:34.644Z,940.88
2019-01-14T11:52:34.640Z,940.93
2019-01-14T11:53:34.640Z,940.77
2019-01-14T11:54:34.636Z,940.80
2019-01-14T11:55:34.624Z,940.85
2019-01-14T11:56:34.619Z,940.78
2019-01-14T11:57:34.609Z,940.79
2019-01-14T11:58:34.609Z,940.84
2019-01-14T11:59:34.603Z,940.99
2019-01-14T12:00:36.752Z,941.03
2019-01-14T12:01:34.591Z,941.07
2019-01-14T12:02:39.455Z,941.08
2019-01-14T12:03:34.581Z,941.06
2019-01-14T12:04:34.576Z,941.02
2019-01-14T12:05:34.569Z,941.05
2019-01-14T12:06:34.576Z,941.03
2019-01-14T12:07:34.558Z,941.09
2019-01-14T12:08:34.553Z,941.06
2019-01-14T12:09:34.546Z,941.08
2019-01-14T12:10:34.540Z,941.06
2019-01-14T12:11:34.534Z,941.05
2019-01-14T12:12:34.538Z,941.08
2019-01-14T12:13:34.524Z,941.05
2019-01-14T12:14:34.517Z,941.07
2019-01-14T12:15:34.510Z,941.00
2019-01-14T12:16:34.508Z,941.06
2019-01-14T12:17:34.498Z,941.07
2019-01-14T12:18:34.491Z,941.06
2019-01-14T12:19:34.485Z,941.14
2019-01-14T12:20:34.478Z,941.04
2019-01-14T12:21:34.466Z,941.09
2019-01-14T12:22:34.466Z,941.18
2019-01-14T12:23:34.459Z,941.20
2019-01-14T12:24:34.455Z,941.20
2019-01-14T12:25:34.447Z,941.22
2019-01-14T12:26:34.442Z,941.19
2019-01-14T12:27:34.428Z,941.12
2019-01-14T12:28:34.433Z,941.10